Time;durP1;ratioP1;P1;durP2;ratioP2;P2;SDS_P1;SDS_P2;PMS_P1;PMS_P2;Temp;Humidity;BMP_temperature;BMP_pressure;BME280_temperature;BME280_humidity;BME280_pressure;Samples;Min_cycle;Max_cycle;Signal;HPM_P1;HPM_P2
2022/06/14 00:01:23;;;;;;;6.60;6.03;;;13.00;62.60;;;11.85;65.74;98497.47;4984212;28;20545;-69
2022/06/14 00:03:51;;;;;;;8.40;6.50;;;12.90;62.90;;;11.84;65.61;98506.63;4979805;28;20469;-71
2022/06/14 00:06:22;;;;;;;6.20;5.60;;;12.80;63.30;;;11.92;65.81;98510.19;4977330;28;20451;-73
2022/06/14 00:08:51;;;;;;;6.03;5.53;;;12.90;63.30;;;11.91;65.65;98509.34;4982538;28;20883;-72
2022/06/14 00:11:22;;;;;;;9.20;6.60;;;12.90;63.60;;;12.08;65.93;98503.47;4984078;28;20459;-73
2022/06/14 00:13:51;;;;;;;6.87;6.17;;;13.00;64.30;;;12.11;65.58;98514.72;4983934;28;20478;-70
2022/06/14 00:16:20;;;;;;;8.30;6.57;;;13.10;64.10;;;12.10;66.54;98518.47;4978260;28;21127;-71
2022/06/14 00:18:47;;;;;;;8.80;6.50;;;13.10;64.60;;;12.18;65.91;98515.53;4984875;28;20454;-70
2022/06/14 00:21:16;;;;;;;8.80;7.30;;;13.20;64.20;;;12.05;66.09;98515.56;4979246;28;20476;-71
2022/06/14 00:23:43;;;;;;;7.13;6.43;;;13.10;64.30;;;12.11;66.33;98511.19;4985716;28;20872;-69
2022/06/14 00:26:12;;;;;;;7.80;5.57;;;13.10;64.60;;;12.12;65.01;98510.97;4980406;28;20467;-70
2022/06/14 00:28:43;;;;;;;10.10;6.43;;;13.10;64.20;;;12.25;64.60;98517.41;4984550;28;20568;-70
2022/06/14 00:31:14;;;;;;;7.10;6.40;;;13.20;63.50;;;12.22;64.40;98505.09;4980145;28;20475;-68
2022/06/14 00:33:42;;;;;;;6.37;5.80;;;13.20;63.30;;;12.11;64.87;98514.72;5000956;28;20540;-70
2022/06/14 00:36:20;;;;;;;7.00;6.30;;;13.10;63.10;;;12.16;64.74;98509.50;4975386;28;20509;-71
2022/06/14 00:38:48;;;;;;;6.60;5.53;;;13.20;63.30;;;11.97;65.71;98510.38;4986332;28;20466;-71
2022/06/14 00:41:35;;;;;;;6.60;5.87;;;13.00;63.60;;;11.75;64.41;98460.00;4993120;28;20475;-71
2022/06/14 00:44:08;;;;;;;8.67;6.20;;;13.10;63.40;;;11.96;65.33;98512.22;5018315;28;20930;-70
2022/06/14 00:46:40;;;;;;;6.70;5.67;;;13.00;63.50;;;11.76;65.96;98496.88;4982550;28;20474;-70
2022/06/14 00:49:17;;;;;;;7.40;5.93;;;12.90;64.10;;;11.68;66.73;98505.22;4983123;28;20477;-70
2022/06/14 00:51:53;;;;;;;6.00;5.43;;;12.80;64.90;;;11.69;66.73;98516.88;4979242;28;20457;-70
2022/06/14 00:54:25;;;;;;;6.47;6.00;;;12.70;65.10;;;11.39;67.04;98506.50;4984282;28;20478;-71
2022/06/14 00:56:57;;;;;;;7.60;6.67;;;12.50;65.10;;;11.44;67.21;98520.22;5014715;28;20865;-71
2022/06/14 00:59:31;;;;;;;7.03;6.33;;;12.50;65.50;;;11.43;66.99;98518.53;5018732;28;20609;-70
2022/06/14 01:02:10;;;;;;;6.53;5.93;;;12.40;65.60;;;11.46;67.40;98524.38;4983850;28;20463;-72
2022/06/14 01:04:37;;;;;;;7.73;6.53;;;12.50;65.60;;;11.60;66.72;98517.09;4983335;28;20459;-70
2022/06/14 01:07:14;;;;;;;6.50;5.90;;;12.50;65.70;;;11.60;66.83;98525.22;4980485;28;20558;-74
2022/06/14 01:09:47;;;;;;;6.43;5.83;;;12.60;65.50;;;11.57;66.23;98522.91;4987131;28;20952;-70
2022/06/14 01:12:18;;;;;;;6.30;5.13;;;12.60;65.50;;;11.56;66.24;98518.53;4984300;28;20462;-70
2022/06/14 01:14:55;;;;;;;8.23;6.70;;;12.60;65.20;;;11.54;67.22;98526.03;4981137;28;20479;-69
2022/06/14 01:17:22;;;;;;;7.33;5.37;;;12.60;65.90;;;11.45;67.21;98521.91;4984472;28;20465;-70
2022/06/14 01:19:50;;;;;;;7.20;6.50;;;12.50;66.00;;;11.58;66.55;98515.63;4983056;28;20472;-71
2022/06/14 01:22:31;;;;;;;6.73;6.13;;;12.50;65.80;;;11.76;66.14;98515.00;4984477;28;20593;-72
2022/06/14 01:25:02;;;;;;;11.30;6.40;;;12.70;65.50;;;11.71;66.25;98517.50;4978796;28;20761;-71
2022/06/14 01:27:31;;;;;;;6.53;5.93;;;12.70;65.40;;;11.73;66.05;98508.13;4990937;28;20471;-71
2022/06/14 01:30:10;;;;;;;6.40;5.80;;;12.80;65.50;;;11.62;66.53;98509.59;4984814;28;20461;-71
2022/06/14 01:32:45;;;;;;;9.33;6.17;;;12.70;65.30;;;11.84;65.48;98503.94;4980878;28;20525;-72
2022/06/14 01:35:20;;;;;;;7.80;7.10;;;12.80;65.00;;;11.82;65.33;98511.44;4979887;28;20510;-71
2022/06/14 01:37:52;;;;;;;7.27;6.17;;;12.80;64.80;;;11.75;66.22;98508.75;4979148;28;20642;-72
2022/06/14 01:40:21;;;;;;;7.27;6.33;;;12.80;65.20;;;11.62;66.93;98511.47;4979388;28;20486;-73
2022/06/14 01:43:26;;;;;;;8.60;6.53;;;12.70;65.50;;;11.50;67.66;98513.97;4997644;28;20511;-70
2022/06/14 01:46:03;;;;;;;7.70;6.90;;;12.60;66.70;;;11.29;68.65;98510.44;4979577;28;20475;-74
2022/06/14 01:48:38;;;;;;;6.77;6.17;;;12.40;67.40;;;11.34;68.32;98504.41;5020915;28;20456;-70
2022/06/14 01:54:14;;;;;;;7.10;6.47;;;12.30;68.10;;;11.09;69.76;98509.59;4980412;28;20476;-71
2022/06/14 01:56:47;;;;;;;7.47;6.70;;;12.20;68.70;;;10.61;69.67;98468.16;4983965;28;20455;-70
2022/06/14 01:59:23;;;;;;;7.07;6.37;;;12.00;68.80;;;10.96;69.66;98508.53;4986783;28;20969;-73
2022/06/14 02:02:03;;;;;;;7.47;6.73;;;12.00;69.10;;;10.93;69.90;98517.06;4986105;28;20556;-72
2022/06/14 02:04:40;;;;;;;7.93;7.13;;;12.00;69.90;;;10.82;70.69;98520.38;4978140;28;20473;-73
2022/06/14 02:07:27;;;;;;;12.60;8.03;;;11.90;70.80;;;10.75;70.93;98510.38;4993911;28;21037;-73
2022/06/14 02:10:05;;;;;;;8.17;7.37;;;11.80;71.10;;;10.82;70.50;98512.25;4995019;28;20506;-73
2022/06/14 02:12:44;;;;;;;7.33;6.60;;;11.80;70.70;;;10.62;70.92;98488.72;4978756;28;20468;-71
2022/06/14 02:15:24;;;;;;;7.90;7.10;;;11.90;71.00;;;10.54;71.15;98515.91;4979757;28;20477;-72
2022/06/14 02:18:02;;;;;;;6.70;6.10;;;11.70;71.20;;;10.62;72.37;98505.78;4987386;28;20543;-74
2022/06/14 02:20:37;;;;;;;9.83;7.00;;;11.60;72.30;;;10.77;71.09;98516.41;4978988;28;20464;-70
2022/06/14 02:23:08;;;;;;;8.10;7.30;;;11.80;72.10;;;10.90;70.58;98510.19;4981576;28;20538;-70
2022/06/14 02:25:46;;;;;;;7.87;6.77;;;11.90;71.60;;;10.90;70.91;98521.00;4977937;28;20510;-73
2022/06/14 02:28:18;;;;;;;7.60;6.80;;;11.90;71.40;;;10.96;70.08;98522.06;4973569;28;20460;-74
2022/06/14 02:30:52;;;;;;;7.37;6.67;;;12.00;71.40;;;11.04;70.51;98524.59;4980795;28;21093;-71
2022/06/14 02:33:24;;;;;;;9.13;6.80;;;12.10;71.10;;;11.08;69.78;98516.91;4980229;28;20460;-69
2022/06/14 02:35:57;;;;;;;7.80;7.10;;;12.10;70.70;;;11.15;68.80;98522.31;4974774;28;21003;-70
2022/06/14 02:38:32;;;;;;;7.27;6.57;;;12.20;70.30;;;11.23;68.31;98511.28;4980366;28;20467;-71
2022/06/14 02:41:09;;;;;;;9.13;7.27;;;12.30;69.80;;;11.13;68.70;98502.72;4995837;28;20541;-74
2022/06/14 02:43:42;;;;;;;10.77;7.77;;;12.30;69.80;;;11.03;70.56;98520.22;4986523;28;20991;-74
2022/06/14 02:46:15;;;;;;;9.17;8.07;;;12.10;71.00;;;10.90;70.37;98515.59;4976229;28;20465;-69
2022/06/14 02:48:49;;;;;;;8.17;7.23;;;12.00;71.10;;;10.82;70.29;98523.91;4978743;28;20469;-72
2022/06/14 02:51:20;;;;;;;8.53;7.20;;;11.90;71.50;;;10.85;71.55;98522.69;4981855;28;20453;-70
2022/06/14 02:53:55;;;;;;;8.93;7.57;;;11.90;72.20;;;10.75;71.43;98528.47;4988379;28;20464;-71
2022/06/14 02:56:29;;;;;;;8.17;7.27;;;11.90;72.10;;;10.72;70.93;98527.03;4996737;28;20495;-74
2022/06/14 02:59:01;;;;;;;8.80;8.00;;;11.80;72.50;;;10.64;72.09;98529.91;4983214;28;20533;-70
2022/06/14 03:01:36;;;;;;;8.23;7.43;;;11.80;72.80;;;10.81;71.63;98522.25;4981672;28;20449;-75
2022/06/14 03:04:12;;;;;;;8.80;7.37;;;11.80;73.00;;;10.80;71.24;98535.97;5025493;28;20447;-76
2022/06/14 03:06:51;;;;;;;8.77;7.60;;;11.80;72.90;;;10.74;71.55;98533.06;4979789;28;20453;-71
2022/06/14 03:09:23;;;;;;;7.53;6.87;;;11.80;72.70;;;10.73;71.87;98538.66;5020036;28;20461;-70
2022/06/14 03:12:03;;;;;;;8.50;7.70;;;11.80;73.40;;;10.88;71.14;98522.28;4994995;28;20453;-70
2022/06/14 03:14:43;;;;;;;9.10;7.97;;;11.90;73.10;;;10.97;70.36;98531.84;4994596;28;20476;-69
2022/06/14 03:17:22;;;;;;;7.83;6.40;;;12.00;72.10;;;11.12;69.51;98520.84;4987741;28;20514;-71
2022/06/14 03:20:01;;;;;;;8.63;7.83;;;12.10;71.90;;;10.86;69.90;98518.94;4982873;28;20468;-72
2022/06/14 03:22:44;;;;;;;9.03;7.90;;;12.00;71.70;;;11.00;70.21;98525.19;4989276;28;20529;-71
2022/06/14 03:25:22;;;;;;;9.80;7.37;;;12.00;72.40;;;11.14;69.96;98531.44;4978435;28;20468;-70
2022/06/14 03:27:56;;;;;;;7.60;6.90;;;12.10;72.40;;;10.97;70.09;98504.78;4982332;28;20968;-70
2022/06/14 03:30:29;;;;;;;8.43;7.63;;;12.20;72.20;;;11.16;70.03;98541.03;4986903;28;20537;-72
2022/06/14 03:33:04;;;;;;;9.13;7.70;;;12.30;71.70;;;11.48;68.85;98537.72;4986314;28;20957;-72
2022/06/14 03:35:38;;;;;;;8.27;7.40;;;12.40;70.90;;;11.50;67.78;98529.38;4981354;28;20536;-72
2022/06/14 03:38:13;;;;;;;8.77;6.97;;;12.60;70.20;;;11.55;68.05;98529.59;4980375;28;20458;-70
2022/06/14 03:40:42;;;;;;;7.70;7.00;;;12.60;69.80;;;11.65;67.35;98524.56;4981645;28;20455;-70
2022/06/14 03:43:12;;;;;;;9.00;7.27;;;12.70;69.40;;;11.62;67.43;98523.13;4986074;28;20454;-71
2022/06/14 03:45:50;;;;;;;8.10;7.30;;;12.70;69.20;;;11.71;67.73;98517.50;4985602;28;20488;-70
2022/06/14 03:48:18;;;;;;;7.03;6.33;;;12.80;69.50;;;11.72;67.46;98521.84;4991346;28;20979;-71
2022/06/14 03:51:00;;;;;;;10.80;7.43;;;12.80;68.90;;;11.80;67.44;98529.78;4985294;28;20468;-71
2022/06/14 03:53:45;;;;;;;7.37;6.63;;;12.80;69.20;;;11.71;68.02;98521.03;4985704;28;20462;-71
2022/06/14 03:56:33;;;;;;;9.23;7.90;;;12.80;69.30;;;11.81;67.43;98531.44;4986581;28;20475;-73
2022/06/14 03:59:19;;;;;;;8.77;7.03;;;12.90;69.10;;;11.68;67.21;98528.75;4987312;28;20472;-71
2022/06/14 04:01:52;;;;;;;10.10;6.77;;;12.80;69.00;;;11.76;67.84;98528.53;4986128;28;20547;-71
2022/06/14 04:04:37;;;;;;;8.20;7.40;;;12.90;69.20;;;11.99;66.44;98527.22;4983505;28;20462;-71
2022/06/14 04:07:19;;;;;;;10.67;6.70;;;13.00;68.60;;;12.83;63.83;98534.63;4981552;28;20572;-70
2022/06/14 04:09:51;;;;;;;7.53;6.80;;;13.70;66.90;;;13.43;61.68;98519.81;4983113;28;20528;-68
2022/06/14 04:12:32;;;;;;;8.50;6.90;;;14.50;64.70;;;13.86;59.51;98529.88;4996177;28;20557;-70
2022/06/14 04:15:31;;;;;;;8.43;7.00;;;15.10;62.10;;;13.45;60.84;98529.41;4985996;28;20825;-72
2022/06/14 04:21:00;;;;;;;8.63;6.40;;;15.10;61.00;;;13.95;59.27;98543.19;4986221;28;20469;-69
2022/06/14 04:23:37;;;;;;;7.00;6.30;;;15.30;60.40;;;14.01;59.61;98531.41;4985570;28;20895;-71
2022/06/14 04:26:16;;;;;;;7.50;6.80;;;15.40;60.00;;;14.17;59.12;98525.38;4981516;28;20516;-73
2022/06/14 04:28:51;;;;;;;9.50;6.87;;;15.60;59.90;;;14.18;58.59;98463.72;4985162;28;20462;-70
2022/06/14 04:31:29;;;;;;;7.70;7.00;;;16.10;59.50;;;15.13;56.14;98528.56;4990174;28;20458;-71
2022/06/14 04:34:06;;;;;;;7.80;7.00;;;16.60;57.90;;;15.42;55.27;98526.00;4988826;28;20551;-75
2022/06/14 04:36:41;;;;;;;8.03;7.23;;;17.00;56.90;;;15.67;54.08;98514.06;4985938;28;20509;-72
2022/06/14 04:39:16;;;;;;;8.50;6.90;;;17.40;56.20;;;15.63;54.15;98530.06;4988534;28;20571;-80
2022/06/14 04:41:50;;;;;;;11.00;6.60;;;17.50;55.30;;;15.45;54.59;98487.41;4995560;28;20506;-78
2022/06/14 04:44:23;;;;;;;7.10;6.43;;;17.40;55.40;;;15.72;53.80;98522.38;4991162;28;21022;-78
2022/06/14 04:46:58;;;;;;;7.50;6.80;;;17.40;55.30;;;15.81;52.96;98515.47;5025158;28;21001;-79
2022/06/14 04:49:32;;;;;;;8.50;6.40;;;17.50;54.40;;;14.73;56.11;98495.41;4981408;28;20465;-80
2022/06/14 04:52:07;;;;;;;7.03;6.43;;;16.80;55.40;;;15.25;55.28;98532.16;4980575;28;20506;-79
2022/06/14 04:54:40;;;;;;;8.23;6.20;;;16.80;55.40;;;15.44;54.54;98521.97;5018688;28;20465;-77
2022/06/14 04:57:13;;;;;;;10.03;7.30;;;17.00;55.40;;;16.18;53.25;98524.50;4981292;28;20468;-77
2022/06/14 04:59:47;;;;;;;8.17;6.93;;;17.60;55.00;;;16.98;51.29;98511.03;4977766;28;20468;-78
2022/06/14 05:02:28;;;;;;;8.17;7.30;;;18.10;54.50;;;17.35;50.23;98531.63;4990857;28;20467;-77
2022/06/14 05:05:00;;;;;;;9.83;8.83;;;18.90;53.60;;;18.81;46.04;98507.94;4979253;28;20474;-80
2022/06/14 05:07:31;;;;;;;6.93;6.33;;;20.00;52.20;;;17.96;47.86;98530.91;4992782;28;20509;-79
2022/06/14 05:10:05;;;;;;;6.53;5.93;;;20.00;51.20;;;17.95;48.39;98524.63;4986099;28;20932;-73
2022/06/14 05:12:40;;;;;;;6.30;5.70;;;19.90;51.20;;;19.40;44.57;98526.31;5012324;28;20459;-72
2022/06/14 05:15:17;;;;;;;9.13;6.10;;;20.70;50.50;;;20.24;42.91;98505.75;4976634;28;20566;-75
2022/06/14 05:17:49;;;;;;;7.77;6.70;;;21.40;49.50;;;20.33;42.45;98523.38;4979479;28;20460;-76
2022/06/14 05:20:23;;;;;;;6.50;5.10;;;21.90;49.10;;;19.80;43.40;98521.41;4973560;28;20509;-75
2022/06/14 05:23:00;;;;;;;7.53;5.53;;;21.80;48.50;;;19.74;43.62;98522.47;4973288;28;20465;-75
2022/06/14 05:25:40;;;;;;;5.77;5.27;;;21.80;48.60;;;20.02;43.04;98514.19;5005103;28;21015;-75
2022/06/14 05:28:14;;;;;;;6.03;5.27;;;22.00;47.90;;;20.16;42.66;98511.78;4976231;28;20487;-75
2022/06/14 05:30:52;;;;;;;6.57;5.97;;;21.90;48.10;;;19.49;43.14;98473.78;4977351;28;20898;-75
2022/06/14 05:33:37;;;;;;;7.00;5.57;;;21.90;47.70;;;19.83;42.96;98511.81;4975643;28;20444;-75
2022/06/14 05:36:12;;;;;;;6.70;6.00;;;21.70;47.90;;;20.38;42.40;98506.94;4975293;28;20568;-75
2022/06/14 05:38:47;;;;;;;7.70;6.20;;;21.80;47.90;;;19.59;43.66;98514.13;4975415;28;20482;-74
2022/06/14 05:41:22;;;;;;;8.77;6.50;;;21.60;47.90;;;20.43;42.66;98516.28;4978648;28;20461;-75
2022/06/14 05:43:53;;;;;;;6.00;5.40;;;22.00;47.80;;;19.50;43.34;98514.63;4982221;28;20529;-75
2022/06/14 05:46:25;;;;;;;7.20;5.20;;;21.70;47.10;;;18.78;45.03;98520.22;4971322;28;20457;-72
2022/06/14 05:48:59;;;;;;;12.47;6.63;;;21.10;47.60;;;18.46;45.45;98515.47;4974778;28;20563;-74
2022/06/14 05:51:31;;;;;;;6.70;5.50;;;20.20;48.10;;;19.74;43.65;98499.72;4988492;28;20703;-75
2022/06/14 05:54:07;;;;;;;6.90;5.77;;;20.90;48.60;;;20.63;41.98;98491.66;4997946;28;20467;-79
2022/06/14 05:56:39;;;;;;;6.40;4.97;;;22.30;48.00;;;20.37;42.75;98532.72;5009504;28;20483;-78
2022/06/14 05:59:17;;;;;;;8.67;5.40;;;22.60;47.60;;;20.89;41.41;98530.19;4979906;28;20560;-79
2022/06/14 06:01:51;;;;;;;10.37;5.30;;;22.60;47.10;;;21.94;38.84;98529.16;4982345;28;20469;-79
2022/06/14 06:04:27;;;;;;;10.53;5.70;;;23.40;46.90;;;21.02;40.11;98492.31;4975968;28;20456;-79
2022/06/14 06:07:02;;;;;;;5.83;5.20;;;23.10;46.50;;;21.19;40.17;98487.38;4981637;28;21277;-79
2022/06/14 06:09:35;;;;;;;5.90;4.90;;;23.40;46.60;;;20.19;41.60;98481.06;4985372;28;20473;-79
2022/06/14 06:12:09;;;;;;;6.77;4.83;;;22.70;46.30;;;21.30;40.09;98525.84;5003044;28;20469;-80
2022/06/14 06:14:40;;;;;;;5.83;4.67;;;23.10;46.30;;;20.59;41.78;98519.91;5003939;28;20536;-81
2022/06/14 06:17:14;;;;;;;7.40;5.17;;;22.60;46.50;;;19.99;41.58;98473.56;4979708;28;20632;-80
2022/06/14 06:19:51;;;;;;;4.93;4.53;;;22.20;46.30;;;20.68;40.99;98515.56;4988770;28;20460;-79
2022/06/14 06:22:24;;;;;;;5.53;4.90;;;21.90;46.60;;;20.86;39.87;98522.50;4988594;28;20548;-78
2022/06/14 06:24:56;;;;;;;4.10;3.70;;;22.50;46.10;;;22.00;36.67;98517.03;4979490;28;21290;-79
2022/06/14 06:27:30;;;;;;;6.00;3.10;;;23.00;44.90;;;20.97;36.77;98522.50;4979300;28;20464;-79
2022/06/14 06:30:05;;;;;;;5.60;3.40;;;23.00;43.40;;;19.33;40.56;98527.63;4981868;28;20445;-80
2022/06/14 06:32:33;;;;;;;3.00;2.57;;;21.90;44.00;;;18.62;41.75;98504.72;4984808;28;20519;-79
2022/06/14 06:35:04;;;;;;;3.17;2.87;;;20.60;44.90;;;18.07;43.99;98535.50;4984072;28;20471;-80
2022/06/14 06:37:39;;;;;;;4.37;3.20;;;19.70;46.10;;;18.07;44.29;98532.75;4982113;28;20477;-79
2022/06/14 06:40:13;;;;;;;4.73;3.00;;;19.30;46.50;;;17.43;46.14;98509.38;4984322;28;20470;-77
2022/06/14 06:42:45;;;;;;;4.90;3.00;;;18.80;47.40;;;17.39;44.02;98535.53;4980592;28;20521;-77
2022/06/14 06:45:18;;;;;;;3.50;2.40;;;18.50;46.50;;;16.82;44.77;98491.66;4982779;28;20992;-76
2022/06/14 06:47:52;;;;;;;6.00;2.13;;;18.20;46.20;;;16.54;45.39;98533.41;4987489;28;20910;-77
2022/06/14 06:50:25;;;;;;;3.47;2.73;;;17.80;46.50;;;16.69;46.22;98533.69;4982785;28;20954;-77
2022/06/14 06:53:07;;;;;;;2.97;1.90;;;17.70;47.00;;;16.85;46.11;98523.09;4977390;28;20494;-77
2022/06/14 06:55:46;;;;;;;4.70;2.40;;;17.80;47.10;;;16.67;45.32;98530.41;4982136;28;20846;-76
2022/06/14 06:58:23;;;;;;;4.30;2.43;;;17.80;46.70;;;16.99;44.79;98534.56;4977881;28;20576;-77
2022/06/14 07:00:55;;;;;;;3.13;2.57;;;17.90;46.60;;;17.16;44.80;98529.13;4982849;28;20459;-78
2022/06/14 07:03:32;;;;;;;2.63;1.90;;;18.10;46.60;;;17.14;44.51;98539.47;4985606;28;20456;-77
2022/06/14 07:06:04;;;;;;;5.17;2.80;;;18.20;46.60;;;17.18;44.57;98529.69;4985825;28;20459;-77
2022/06/14 07:08:42;;;;;;;2.40;2.10;;;18.20;46.40;;;17.53;44.58;98531.41;4988522;28;20479;-76
2022/06/14 07:11:17;;;;;;;3.23;2.00;;;18.30;47.00;;;17.46;44.09;98528.00;5017201;28;20467;-77
2022/06/14 07:13:51;;;;;;;3.40;2.00;;;18.50;46.60;;;17.40;43.82;98518.88;5000240;28;20518;-78
2022/06/14 07:16:26;;;;;;;4.70;2.33;;;18.30;46.50;;;17.69;44.23;98523.44;4987952;28;20551;-78
2022/06/14 07:19:07;;;;;;;3.90;2.03;;;18.60;46.80;;;17.98;44.14;98523.31;4988946;28;20474;-77
2022/06/14 07:21:41;;;;;;;2.93;2.73;;;18.80;47.40;;;17.96;43.46;98520.00;4985103;28;20519;-72
2022/06/14 07:24:16;;;;;;;2.40;2.20;;;18.80;46.60;;;18.19;43.75;98518.16;4985961;28;20456;-74
2022/06/14 07:26:48;;;;;;;3.33;2.53;;;19.00;47.20;;;17.96;42.96;98520.00;4981184;28;20467;-74
2022/06/14 07:29:21;;;;;;;6.63;2.67;;;18.90;46.40;;;17.79;44.20;98515.38;4983761;28;20474;-74
2022/06/14 07:31:58;;;;;;;3.93;2.50;;;18.80;46.70;;;17.88;43.58;98517.69;4984510;28;20455;-76
2022/06/14 07:34:27;;;;;;;3.43;2.37;;;18.80;46.50;;;17.62;44.45;98517.31;4992587;28;20922;-75
2022/06/14 07:37:04;;;;;;;2.97;2.67;;;18.60;46.80;;;17.59;44.10;98520.53;4981649;28;20468;-74
2022/06/14 07:39:41;;;;;;;3.20;2.00;;;18.50;46.60;;;17.83;44.46;98512.97;4984564;28;20519;-74
2022/06/14 07:42:17;;;;;;;4.03;2.60;;;18.60;47.00;;;17.89;43.71;98513.88;4987700;28;20463;-74
2022/06/14 07:44:53;;;;;;;2.70;2.50;;;18.80;46.60;;;18.28;43.39;98511.19;4985580;28;20455;-74
2022/06/14 07:47:32;;;;;;;2.90;2.07;;;19.10;46.90;;;18.55;42.65;98513.13;4987796;28;20984;-75
2022/06/14 07:50:11;;;;;;;4.40;2.90;;;19.30;46.60;;;18.72;42.28;98504.84;4989960;28;20979;-75
2022/06/14 07:52:45;;;;;;;4.33;3.30;;;19.50;46.30;;;18.03;42.54;98509.75;4988220;28;21001;-75
2022/06/14 07:55:20;;;;;;;4.63;2.67;;;19.10;45.80;;;18.34;42.42;98499.19;4993097;28;20462;-75
2022/06/14 07:57:53;;;;;;;5.23;2.90;;;19.20;46.10;;;18.47;42.84;98502.63;4981905;28;20459;-75
2022/06/14 08:03:15;;;;;;;5.23;2.97;;;19.50;46.20;;;18.24;42.08;98499.91;4990920;28;20470;-76
2022/06/14 08:05:47;;;;;;;5.67;2.57;;;19.30;45.70;;;18.21;41.38;98450.38;4986842;28;20532;-74
2022/06/14 08:08:21;;;;;;;2.90;2.60;;;19.40;45.60;;;18.80;41.72;98500.81;4986778;28;20456;-75
2022/06/14 08:10:53;;;;;;;5.63;2.83;;;19.60;46.00;;;18.94;41.28;98499.31;4979794;28;20504;-75
2022/06/14 08:13:26;;;;;;;4.87;2.90;;;19.80;45.80;;;18.93;41.28;98494.94;4982815;28;20476;-75
2022/06/14 08:15:57;;;;;;;5.10;2.60;;;19.90;45.80;;;18.81;41.20;98500.56;4982493;28;20475;-75
2022/06/14 08:18:35;;;;;;;4.53;3.23;;;19.80;45.40;;;18.85;40.94;98500.84;5003290;28;20455;-75
2022/06/14 08:21:09;;;;;;;5.20;2.60;;;19.80;45.50;;;18.73;41.18;98501.00;4985761;28;21138;-75
2022/06/14 08:23:46;;;;;;;9.73;3.33;;;19.60;45.40;;;18.93;40.58;98505.88;4989291;28;20999;-75
2022/06/14 08:26:23;;;;;;;4.03;3.10;;;19.70;45.40;;;19.06;39.66;98504.66;4991185;28;20463;-75
2022/06/14 08:29:00;;;;;;;5.50;2.80;;;19.90;45.00;;;18.97;40.54;98507.00;4981432;28;20501;-76
2022/06/14 08:31:35;;;;;;;2.80;2.60;;;19.90;45.10;;;19.00;40.14;98499.38;4982006;28;20462;-76
2022/06/14 08:34:12;;;;;;;4.10;3.13;;;19.80;44.90;;;18.82;40.44;98504.94;5000582;28;20478;-75
2022/06/14 08:36:48;;;;;;;3.30;2.83;;;19.70;44.80;;;18.94;40.34;98495.72;4984680;28;20483;-75
2022/06/14 08:39:23;;;;;;;3.03;2.60;;;19.70;45.00;;;19.04;40.29;98493.13;4989057;28;20467;-75
2022/06/14 08:42:03;;;;;;;4.73;2.90;;;19.90;45.20;;;18.91;40.82;98496.25;4983551;28;20513;-75
2022/06/14 08:44:36;;;;;;;3.80;2.90;;;19.90;45.20;;;19.29;40.29;98501.84;4980976;28;21179;-75
2022/06/14 08:47:33;;;;;;;6.50;3.20;;;20.00;45.20;;;19.17;38.87;98494.59;5016493;28;20983;-75
2022/06/14 08:50:12;;;;;;;2.90;2.57;;;20.10;44.60;;;19.12;39.45;98497.31;4989094;28;20464;-75
2022/06/14 08:53:10;;;;;;;7.63;3.13;;;20.00;44.40;;;19.09;38.54;98484.16;4981684;28;20475;-76
2022/06/14 08:56:15;;;;;;;3.97;2.40;;;20.00;43.80;;;19.28;37.38;98503.75;4984944;28;20554;-75
2022/06/14 08:59:31;;;;;;;2.83;2.30;;;20.10;43.20;;;18.95;37.80;98503.69;5004758;28;20551;-76
2022/06/14 09:02:41;;;;;;;10.50;3.43;;;19.90;42.60;;;18.99;36.91;98493.09;4981856;28;20939;-76
2022/06/14 09:06:00;;;;;;;5.20;2.40;;;19.90;42.70;;;19.19;37.29;98487.00;4983748;28;20554;-76
2022/06/14 09:09:10;;;;;;;6.90;2.40;;;20.00;42.90;;;19.23;35.16;98482.63;4983136;28;21032;-76
2022/06/14 09:12:33;;;;;;;3.30;2.20;;;20.10;42.10;;;19.36;34.10;98486.84;4979571;28;20471;-78
2022/06/14 09:15:52;;;;;;;4.20;2.30;;;20.30;40.90;;;19.32;34.20;98484.88;5003112;28;20516;-76
2022/06/14 09:18:44;;;;;;;4.50;2.50;;;20.10;40.40;;;19.29;33.13;98479.94;4981867;28;20517;-75
2022/06/14 09:21:23;;;;;;;3.33;2.50;;;20.20;39.70;;;19.20;32.95;98474.94;5063679;28;20465;-76
2022/06/14 09:24:12;;;;;;;3.57;2.40;;;20.10;39.50;;;19.46;33.75;98480.59;5004232;28;20545;-75
2022/06/14 09:26:50;;;;;;;4.17;1.93;;;20.20;40.20;;;19.60;33.58;98475.50;4980592;28;21205;-76
2022/06/14 09:29:52;;;;;;;3.30;2.20;;;20.30;40.40;;;19.53;34.45;98481.22;4983942;28;20551;-76
2022/06/14 09:33:13;;;;;;;3.80;2.53;;;20.40;40.50;;;19.50;34.08;98476.28;5002072;28;20987;-76
2022/06/14 09:36:24;;;;;;;4.23;2.50;;;20.30;41.60;;;19.67;34.59;98469.81;5055797;28;20545;-76
2022/06/14 09:39:48;;;;;;;3.80;2.27;;;20.40;41.10;;;20.10;35.76;98467.88;4982918;28;20530;-77
2022/06/14 09:43:22;;;;;;;5.63;2.77;;;20.70;42.20;;;20.44;35.86;98468.56;4987422;28;20460;-75
2022/06/14 09:46:03;;;;;;;4.33;2.80;;;21.10;42.70;;;20.24;35.43;98467.38;4975394;28;20513;-76
2022/06/14 09:49:30;;;;;;;3.80;2.90;;;21.10;42.30;;;20.19;36.25;98470.09;4983935;28;20525;-75
2022/06/14 09:52:35;;;;;;;3.23;2.50;;;21.00;42.60;;;19.90;36.02;98473.22;4984496;28;20463;-77
2022/06/14 09:55:45;;;;;;;4.90;2.77;;;20.80;42.30;;;20.15;36.00;98466.25;4973502;28;20479;-77
2022/06/14 09:59:13;;;;;;;3.43;2.57;;;20.80;43.40;;;20.20;35.55;98466.25;4988860;28;20483;-76
2022/06/14 10:01:53;;;;;;;3.33;2.40;;;20.90;42.50;;;20.18;35.51;98466.53;4964277;28;20475;-76
2022/06/14 10:04:56;;;;;;;3.30;2.60;;;21.00;41.90;;;20.13;34.33;98454.72;4988814;28;20635;-75
2022/06/14 10:07:52;;;;;;;3.00;2.40;;;20.90;41.10;;;20.17;33.39;98455.81;4990960;28;20468;-76
2022/06/14 10:10:40;;;;;;;4.07;2.60;;;20.90;40.50;;;20.10;33.49;98459.66;4984216;28;20465;-76
2022/06/14 10:13:54;;;;;;;3.60;3.10;;;20.90;40.50;;;20.01;33.33;98449.44;5007932;28;20563;-76
2022/06/14 10:16:49;;;;;;;4.63;2.37;;;20.80;40.20;;;20.22;33.36;98442.13;4999361;28;20476;-77
2022/06/14 10:19:51;;;;;;;2.80;2.50;;;20.90;40.30;;;20.34;33.29;98442.72;5000729;28;20455;-75
2022/06/14 10:22:26;;;;;;;3.43;2.40;;;21.10;40.90;;;20.42;31.99;98443.31;4990943;28;20470;-75
2022/06/14 10:25:00;;;;;;;2.67;1.93;;;21.20;39.50;;;20.28;30.57;98445.72;4991581;28;20477;-73
2022/06/14 10:30:48;;;;;;;3.80;2.10;;;21.10;39.30;;;20.50;31.44;98451.00;4996976;28;20515;-75
2022/06/14 10:33:43;;;;;;;5.03;2.70;;;21.20;38.70;;;20.45;31.17;98446.31;4983067;28;20509;-77
2022/06/14 10:36:43;;;;;;;2.80;2.20;;;21.30;39.20;;;20.45;32.56;98451.00;5000723;28;20459;-76
2022/06/14 10:40:10;;;;;;;3.57;2.60;;;21.20;39.60;;;20.54;31.75;98441.13;5006564;28;20801;-75
2022/06/14 10:42:43;;;;;;;3.37;2.17;;;21.30;39.30;;;20.62;32.00;98439.75;4984145;28;20624;-76
2022/06/14 10:45:19;;;;;;;3.33;2.50;;;21.40;39.40;;;20.72;31.37;98433.50;4979390;28;20532;-76
2022/06/14 10:48:41;;;;;;;2.87;2.60;;;21.40;39.30;;;20.84;29.52;98419.53;4987607;28;20520;-75
2022/06/14 10:51:36;;;;;;;5.00;2.60;;;21.60;38.50;;;20.91;27.26;98436.53;4994904;28;20472;-75
2022/06/14 10:54:15;;;;;;;3.00;2.03;;;21.70;36.40;;;20.90;27.07;98418.41;4988844;28;20569;-76
2022/06/14 10:57:15;;;;;;;2.37;2.00;;;21.70;35.90;;;21.05;28.41;98414.88;4987623;28;20667;-76
2022/06/14 11:00:17;;;;;;;4.53;2.43;;;21.80;36.90;;;21.05;28.91;98388.22;4983267;28;21052;-76
2022/06/14 11:03:13;;;;;;;4.17;2.30;;;21.90;37.60;;;20.89;27.26;98417.63;4982733;28;20462;-76
2022/06/14 11:06:01;;;;;;;2.73;2.27;;;21.80;36.00;;;20.99;29.07;98421.44;4991401;28;20461;-76
2022/06/14 11:08:48;;;;;;;3.17;2.67;;;21.80;36.90;;;21.01;30.55;98419.28;4993284;28;20460;-76
2022/06/14 11:11:46;;;;;;;3.00;2.30;;;21.80;38.70;;;20.99;30.85;98421.44;4975816;28;20974;-75
2022/06/14 11:14:21;;;;;;;3.67;2.93;;;21.70;38.80;;;21.09;29.84;98426.94;4977989;28;20464;-75
2022/06/14 11:17:19;;;;;;;3.50;2.20;;;21.80;38.40;;;21.26;29.98;98425.84;4979533;28;20472;-76
2022/06/14 11:20:06;;;;;;;4.20;2.50;;;22.00;38.50;;;21.14;29.68;98421.44;4989352;28;20464;-76
2022/06/14 11:22:40;;;;;;;3.13;2.30;;;21.90;38.20;;;21.23;29.13;98413.50;4984702;28;20472;-76